• Join FlightAware (Why Join?)
  • Login
  • US Flag 
08:02PM EDT


 

Airport Tracker/Info


-or-


 

Live Flight TrackerFlight Track Log ✈ KAL1334 ✈ 17-May-2013 ✈ RKJY / RSU - RKSS / GMP

Flight Track Log - Related Links

Times and Time Zones

All times are in EDT time to prevent confusion due to time zone crossing. See the KAL1334 flight status page for this flight to view local times or setup timezone preferences in your user account.

Time Position Orientation Groundspeed Altitude Reporting Facility
EDT Latitude Longitude Course Direction KTS MPH feet Rate Location/Type
11:02PM 35.1428 127.5263 346° North  Level Estimated
11:03PM 35.2185 127.5039 346° North  Level Estimated
11:04PM 35.2943 127.4815 346° North  Level Estimated
11:05PM 35.3700 127.4590 346° North  Level Estimated
11:06PM 35.4457 127.4365 346° North  Level Estimated
11:07PM 35.5214 127.4140 346° North  Level Estimated
11:08PM 35.5971 127.3914 346° North  Level Estimated
11:09PM 35.6729 127.3688 346° North  Level Estimated
11:10PM 35.7486 127.3461 346° North  Level Estimated
11:11PM 35.8243 127.3234 346° North  Level Estimated
11:12PM 35.9000 127.3007 346° North  Level Estimated
11:13PM 35.9757 127.2779 346° North  Level Estimated
11:14PM 36.0513 127.2550 346° North  Level Estimated
11:15PM 36.1270 127.2321 346° North  Level Estimated
11:16PM 36.1838 127.2150 346° North  Level Estimated
11:17PM 36.2405 127.1977 346° North  Level Estimated
11:18PM 36.2973 127.1805 346° North  Level Estimated
11:19PM 36.3540 127.1632 346° North  Level Estimated
11:20PM 36.4108 127.1459 346° North  Level Estimated
11:21PM 36.4675 127.1286 346° North  Level Estimated
11:22PM 36.5243 127.1113 346° North  Level Estimated
11:23PM 36.5810 127.0939 346° North  Level Estimated
11:24PM 36.6378 127.0765 346° North  Level Estimated
11:25PM 36.6945 127.0591 346° North  Level Estimated
11:26PM 36.7513 127.0417 346° North  Level Estimated
11:27PM 36.8080 127.0242 346° North  Level Estimated
11:28PM 36.8647 127.0067 346° North  Level Estimated
11:29PM 36.9215 126.9892 346° North  Level Estimated
11:30PM 36.9782 126.9716 346° North  Level Estimated
11:31PM 37.0349 126.9540 346° North  Level Estimated
11:32PM 37.0916 126.9364 346° North  Level Estimated
11:33PM 37.1483 126.9188 346° North  Level Estimated
11:34PM 37.2051 126.9012 346° North  Level Estimated
11:35PM 37.2618 126.8835 346° North  Level Estimated
11:36PM 37.3185 126.8658 346° North  Level Estimated
11:37PM 37.3752 126.8481 346° North  Level Estimated
11:38PM 37.4319 126.8303 346° North  Level Estimated
11:39PM 37.4886 126.8125 346° North  Level Estimated
11:40PM 37.5453 126.7947 346° North  Level Estimated
11:41PM 37.5583 126.7906 346° North  Level Estimated
11:42PM 37.5583 126.7906 288° West  Level Estimated
11:43PM 37.5583 126.7906 288° West  Level Estimated
11:44PM 37.5583 126.7906 288° West  Level Estimated
11:45PM 37.5583 126.7906 288° West  Level Estimated
11:46PM 37.5583 126.7906 288° West  Level Estimated
11:47PM 37.5583 126.7906 288° West  Level Estimated